sensor_id;sensor_type;location;lat;lon;timestamp;temperature;humidity
68026;SHT31;54819;48.030;14.710;2023-02-28T00:01:31;-0.36;73.22
68026;SHT31;54819;48.030;14.710;2023-02-28T00:03:59;-0.44;73.71
68026;SHT31;54819;48.030;14.710;2023-02-28T00:06:26;-0.50;73.73
68026;SHT31;54819;48.030;14.710;2023-02-28T00:08:56;-0.55;73.98
68026;SHT31;54819;48.030;14.710;2023-02-28T00:11:23;-0.58;74.20
68026;SHT31;54819;48.030;14.710;2023-02-28T00:13:50;-0.61;74.42
68026;SHT31;54819;48.030;14.710;2023-02-28T00:16:19;-0.65;74.76
68026;SHT31;54819;48.030;14.710;2023-02-28T00:18:48;-0.65;74.57
68026;SHT31;54819;48.030;14.710;2023-02-28T00:21:17;-0.63;74.70
68026;SHT31;54819;48.030;14.710;2023-02-28T00:23:45;-0.63;74.83
68026;SHT31;54819;48.030;14.710;2023-02-28T00:26:13;-0.71;75.09
68026;SHT31;54819;48.030;14.710;2023-02-28T00:28:41;-0.76;75.23
68026;SHT31;54819;48.030;14.710;2023-02-28T00:31:09;-0.80;75.42
68026;SHT31;54819;48.030;14.710;2023-02-28T00:33:36;-0.84;75.52
68026;SHT31;54819;48.030;14.710;2023-02-28T00:36:07;-0.89;75.78
68026;SHT31;54819;48.030;14.710;2023-02-28T00:38:37;-0.90;75.96
68026;SHT31;54819;48.030;14.710;2023-02-28T00:41:05;-0.90;76.08
68026;SHT31;54819;48.030;14.710;2023-02-28T00:43:33;-0.93;76.38
68026;SHT31;54819;48.030;14.710;2023-02-28T00:46:02;-0.93;76.40
68026;SHT31;54819;48.030;14.710;2023-02-28T00:48:30;-0.94;76.40
68026;SHT31;54819;48.030;14.710;2023-02-28T00:50:58;-0.95;76.46
68026;SHT31;54819;48.030;14.710;2023-02-28T00:53:25;-0.99;76.54
68026;SHT31;54819;48.030;14.710;2023-02-28T00:55:52;-1.02;76.51
68026;SHT31;54819;48.030;14.710;2023-02-28T00:58:19;-1.04;76.71
68026;SHT31;54819;48.030;14.710;2023-02-28T01:00:47;-1.08;76.91
68026;SHT31;54819;48.030;14.710;2023-02-28T01:03:18;-1.09;77.05
68026;SHT31;54819;48.030;14.710;2023-02-28T01:05:46;-1.13;77.25
68026;SHT31;54819;48.030;14.710;2023-02-28T01:08:15;-1.15;77.47
68026;SHT31;54819;48.030;14.710;2023-02-28T01:10:42;-1.17;77.65
68026;SHT31;54819;48.030;14.710;2023-02-28T01:13:10;-1.20;77.87
68026;SHT31;54819;48.030;14.710;2023-02-28T01:15:38;-1.17;77.76
68026;SHT31;54819;48.030;14.710;2023-02-28T01:18:11;-1.15;77.61
68026;SHT31;54819;48.030;14.710;2023-02-28T01:20:38;-1.15;77.61
68026;SHT31;54819;48.030;14.710;2023-02-28T01:23:05;-1.18;77.78
68026;SHT31;54819;48.030;14.710;2023-02-28T01:25:36;-1.23;77.95
68026;SHT31;54819;48.030;14.710;2023-02-28T01:28:04;-1.28;77.99
68026;SHT31;54819;48.030;14.710;2023-02-28T01:30:35;-1.29;78.18
68026;SHT31;54819;48.030;14.710;2023-02-28T01:33:02;-1.32;78.45
68026;SHT31;54819;48.030;14.710;2023-02-28T01:35:32;-1.34;78.48
68026;SHT31;54819;48.030;14.710;2023-02-28T01:38:00;-1.29;78.27
68026;SHT31;54819;48.030;14.710;2023-02-28T01:40:46;-1.32;78.48
68026;SHT31;54819;48.030;14.710;2023-02-28T01:43:21;-1.31;78.49
68026;SHT31;54819;48.030;14.710;2023-02-28T01:45:48;-1.32;78.44
68026;SHT31;54819;48.030;14.710;2023-02-28T01:48:15;-1.33;78.36
68026;SHT31;54819;48.030;14.710;2023-02-28T01:50:45;-1.34;78.51
68026;SHT31;54819;48.030;14.710;2023-02-28T01:53:16;-1.39;78.66
68026;SHT31;54819;48.030;14.710;2023-02-28T01:55:47;-1.43;78.86
68026;SHT31;54819;48.030;14.710;2023-02-28T01:58:18;-1.43;79.00
68026;SHT31;54819;48.030;14.710;2023-02-28T02:00:46;-1.42;79.03
68026;SHT31;54819;48.030;14.710;2023-02-28T02:03:14;-1.37;78.89
68026;SHT31;54819;48.030;14.710;2023-02-28T02:05:47;-1.38;78.94
68026;SHT31;54819;48.030;14.710;2023-02-28T02:08:19;-1.40;79.33
68026;SHT31;54819;48.030;14.710;2023-02-28T02:10:54;-1.41;79.16
68026;SHT31;54819;48.030;14.710;2023-02-28T02:13:42;-1.42;79.17
68026;SHT31;54819;48.030;14.710;2023-02-28T02:16:27;-1.46;79.26
68026;SHT31;54819;48.030;14.710;2023-02-28T02:27:22;-1.47;79.39
68026;SHT31;54819;48.030;14.710;2023-02-28T02:33:29;-1.55;79.48
68026;SHT31;54819;48.030;14.710;2023-02-28T02:42:03;-1.63;80.03
68026;SHT31;54819;48.030;14.710;2023-02-28T02:44:43;-1.64;80.24
68026;SHT31;54819;48.030;14.710;2023-02-28T02:47:18;-1.62;80.10
68026;SHT31;54819;48.030;14.710;2023-02-28T02:49:53;-1.61;80.07
68026;SHT31;54819;48.030;14.710;2023-02-28T02:52:25;-1.60;79.99
68026;SHT31;54819;48.030;14.710;2023-02-28T02:54:59;-1.59;79.94
68026;SHT31;54819;48.030;14.710;2023-02-28T02:57:40;-1.58;79.85
68026;SHT31;54819;48.030;14.710;2023-02-28T03:00:36;-1.63;79.71
68026;SHT31;54819;48.030;14.710;2023-02-28T03:03:09;-1.67;79.93
68026;SHT31;54819;48.030;14.710;2023-02-28T03:08:13;-1.72;80.31
68026;SHT31;54819;48.030;14.710;2023-02-28T03:10:45;-1.74;80.49
68026;SHT31;54819;48.030;14.710;2023-02-28T03:22:14;-1.60;80.09
68026;SHT31;54819;48.030;14.710;2023-02-28T03:30:22;-1.64;80.30
68026;SHT31;54819;48.030;14.710;2023-02-28T03:33:46;-1.66;80.41
68026;SHT31;54819;48.030;14.710;2023-02-28T03:36:17;-1.63;80.22
68026;SHT31;54819;48.030;14.710;2023-02-28T03:38:57;-1.65;80.12
68026;SHT31;54819;48.030;14.710;2023-02-28T03:41:33;-1.68;80.13
68026;SHT31;54819;48.030;14.710;2023-02-28T03:44:06;-1.72;80.37
68026;SHT31;54819;48.030;14.710;2023-02-28T03:47:00;-1.77;80.64
68026;SHT31;54819;48.030;14.710;2023-02-28T03:49:34;-1.78;80.67
68026;SHT31;54819;48.030;14.710;2023-02-28T03:52:06;-1.78;80.71
68026;SHT31;54819;48.030;14.710;2023-02-28T03:54:41;-1.78;80.56
68026;SHT31;54819;48.030;14.710;2023-02-28T03:57:15;-1.80;80.63
68026;SHT31;54819;48.030;14.710;2023-02-28T03:59:52;-1.85;80.67
68026;SHT31;54819;48.030;14.710;2023-02-28T04:02:27;-1.88;80.76
68026;SHT31;54819;48.030;14.710;2023-02-28T04:04:54;-1.89;80.89
68026;SHT31;54819;48.030;14.710;2023-02-28T04:07:21;-1.87;80.80
68026;SHT31;54819;48.030;14.710;2023-02-28T04:09:48;-1.88;80.82
68026;SHT31;54819;48.030;14.710;2023-02-28T04:12:15;-1.87;80.79
68026;SHT31;54819;48.030;14.710;2023-02-28T04:14:42;-1.91;80.84
68026;SHT31;54819;48.030;14.710;2023-02-28T04:17:11;-1.95;80.88
68026;SHT31;54819;48.030;14.710;2023-02-28T04:19:38;-1.97;80.96
68026;SHT31;54819;48.030;14.710;2023-02-28T04:22:05;-2.00;81.02
68026;SHT31;54819;48.030;14.710;2023-02-28T04:24:34;-1.99;80.99
68026;SHT31;54819;48.030;14.710;2023-02-28T04:27:01;-2.02;81.11
68026;SHT31;54819;48.030;14.710;2023-02-28T04:29:31;-2.03;81.09
68026;SHT31;54819;48.030;14.710;2023-02-28T04:31:59;-2.00;80.87
68026;SHT31;54819;48.030;14.710;2023-02-28T04:34:28;-2.06;80.91
68026;SHT31;54819;48.030;14.710;2023-02-28T04:36:56;-2.12;81.07
68026;SHT31;54819;48.030;14.710;2023-02-28T04:39:40;-2.16;81.27
68026;SHT31;54819;48.030;14.710;2023-02-28T04:42:08;-2.18;81.29
68026;SHT31;54819;48.030;14.710;2023-02-28T04:44:35;-2.17;81.18
68026;SHT31;54819;48.030;14.710;2023-02-28T04:47:03;-2.15;81.02
68026;SHT31;54819;48.030;14.710;2023-02-28T04:49:30;-2.15;81.02
68026;SHT31;54819;48.030;14.710;2023-02-28T04:51:57;-2.18;81.03
68026;SHT31;54819;48.030;14.710;2023-02-28T04:54:24;-2.22;81.12
68026;SHT31;54819;48.030;14.710;2023-02-28T04:56:51;-2.27;81.27
68026;SHT31;54819;48.030;14.710;2023-02-28T04:59:18;-2.33;81.41
68026;SHT31;54819;48.030;14.710;2023-02-28T05:01:46;-2.35;81.56
68026;SHT31;54819;48.030;14.710;2023-02-28T05:04:16;-2.33;81.49
68026;SHT31;54819;48.030;14.710;2023-02-28T05:06:44;-2.33;81.41
68026;SHT31;54819;48.030;14.710;2023-02-28T05:09:11;-2.34;81.35
68026;SHT31;54819;48.030;14.710;2023-02-28T05:11:38;-2.36;81.38
68026;SHT31;54819;48.030;14.710;2023-02-28T05:14:09;-2.37;81.52
68026;SHT31;54819;48.030;14.710;2023-02-28T05:16:38;-2.37;81.40
68026;SHT31;54819;48.030;14.710;2023-02-28T05:19:05;-2.41;81.49
68026;SHT31;54819;48.030;14.710;2023-02-28T05:21:34;-2.42;81.45
68026;SHT31;54819;48.030;14.710;2023-02-28T05:24:02;-2.43;81.58
68026;SHT31;54819;48.030;14.710;2023-02-28T05:26:38;-2.44;81.48
68026;SHT31;54819;48.030;14.710;2023-02-28T05:29:09;-2.41;81.43
68026;SHT31;54819;48.030;14.710;2023-02-28T05:31:37;-2.40;81.34
68026;SHT31;54819;48.030;14.710;2023-02-28T05:34:04;-2.36;81.09
68026;SHT31;54819;48.030;14.710;2023-02-28T05:36:31;-2.42;81.16
68026;SHT31;54819;48.030;14.710;2023-02-28T05:38:59;-2.45;81.28
68026;SHT31;54819;48.030;14.710;2023-02-28T05:41:26;-2.45;81.29
68026;SHT31;54819;48.030;14.710;2023-02-28T05:43:54;-2.45;81.26
68026;SHT31;54819;48.030;14.710;2023-02-28T05:46:21;-2.46;81.27
68026;SHT31;54819;48.030;14.710;2023-02-28T05:48:48;-2.46;81.29
68026;SHT31;54819;48.030;14.710;2023-02-28T05:51:17;-2.44;81.28
68026;SHT31;54819;48.030;14.710;2023-02-28T05:53:44;-2.42;81.10
68026;SHT31;54819;48.030;14.710;2023-02-28T05:56:11;-2.44;81.05
68026;SHT31;54819;48.030;14.710;2023-02-28T05:58:38;-2.44;81.04
68026;SHT31;54819;48.030;14.710;2023-02-28T06:01:25;-2.48;81.05
68026;SHT31;54819;48.030;14.710;2023-02-28T06:03:59;-2.49;81.03
68026;SHT31;54819;48.030;14.710;2023-02-28T06:06:27;-2.48;81.07
68026;SHT31;54819;48.030;14.710;2023-02-28T06:08:56;-2.48;81.12
68026;SHT31;54819;48.030;14.710;2023-02-28T06:11:23;-2.46;81.19
68026;SHT31;54819;48.030;14.710;2023-02-28T06:13:55;-2.43;81.14
68026;SHT31;54819;48.030;14.710;2023-02-28T06:16:23;-2.42;81.09
68026;SHT31;54819;48.030;14.710;2023-02-28T06:18:51;-2.37;80.89
68026;SHT31;54819;48.030;14.710;2023-02-28T06:21:19;-2.32;80.66
68026;SHT31;54819;48.030;14.710;2023-02-28T06:23:46;-2.29;80.61
68026;SHT31;54819;48.030;14.710;2023-02-28T06:26:13;-2.27;80.55
68026;SHT31;54819;48.030;14.710;2023-02-28T06:28:40;-2.26;80.60
68026;SHT31;54819;48.030;14.710;2023-02-28T06:31:11;-2.26;80.44
68026;SHT31;54819;48.030;14.710;2023-02-28T06:33:40;-2.26;80.46
68026;SHT31;54819;48.030;14.710;2023-02-28T06:36:09;-2.26;80.57
68026;SHT31;54819;48.030;14.710;2023-02-28T06:38:39;-2.18;80.38
68026;SHT31;54819;48.030;14.710;2023-02-28T06:41:07;-2.13;80.19
68026;SHT31;54819;48.030;14.710;2023-02-28T06:43:37;-2.10;80.17
68026;SHT31;54819;48.030;14.710;2023-02-28T06:46:07;-2.06;79.82
68026;SHT31;54819;48.030;14.710;2023-02-28T06:48:36;-2.06;79.90
68026;SHT31;54819;48.030;14.710;2023-02-28T06:51:07;-2.02;79.81
68026;SHT31;54819;48.030;14.710;2023-02-28T06:53:35;-2.00;79.72
68026;SHT31;54819;48.030;14.710;2023-02-28T06:56:04;-1.97;79.44
68026;SHT31;54819;48.030;14.710;2023-02-28T06:58:32;-1.95;79.45
68026;SHT31;54819;48.030;14.710;2023-02-28T07:01:00;-1.88;79.21
68026;SHT31;54819;48.030;14.710;2023-02-28T07:03:28;-1.84;79.21
68026;SHT31;54819;48.030;14.710;2023-02-28T07:06:00;-1.76;78.92
68026;SHT31;54819;48.030;14.710;2023-02-28T07:08:30;-1.73;78.74
68026;SHT31;54819;48.030;14.710;2023-02-28T07:10:58;-1.69;78.80
68026;SHT31;54819;48.030;14.710;2023-02-28T07:13:25;-1.64;78.73
68026;SHT31;54819;48.030;14.710;2023-02-28T07:15:54;-1.61;78.28
68026;SHT31;54819;48.030;14.710;2023-02-28T07:18:22;-1.58;78.38
68026;SHT31;54819;48.030;14.710;2023-02-28T07:20:50;-1.52;78.23
68026;SHT31;54819;48.030;14.710;2023-02-28T07:23:17;-1.45;77.83
68026;SHT31;54819;48.030;14.710;2023-02-28T07:25:44;-1.40;77.82
68026;SHT31;54819;48.030;14.710;2023-02-28T07:28:12;-1.37;77.80
68026;SHT31;54819;48.030;14.710;2023-02-28T07:30:40;-1.33;77.65
68026;SHT31;54819;48.030;14.710;2023-02-28T07:33:08;-1.28;77.35
68026;SHT31;54819;48.030;14.710;2023-02-28T07:35:36;-1.30;77.03
68026;SHT31;54819;48.030;14.710;2023-02-28T07:38:03;-1.26;77.23
68026;SHT31;54819;48.030;14.710;2023-02-28T07:40:34;-1.18;76.65
68026;SHT31;54819;48.030;14.710;2023-02-28T07:43:02;-1.15;76.70
68026;SHT31;54819;48.030;14.710;2023-02-28T07:45:31;-1.10;76.53
68026;SHT31;54819;48.030;14.710;2023-02-28T07:48:01;-1.08;76.36
68026;SHT31;54819;48.030;14.710;2023-02-28T07:50:29;-1.04;76.44
68026;SHT31;54819;48.030;14.710;2023-02-28T07:52:58;-0.97;76.32
68026;SHT31;54819;48.030;14.710;2023-02-28T07:55:25;-0.87;76.35
68026;SHT31;54819;48.030;14.710;2023-02-28T07:57:56;-0.77;76.08
68026;SHT31;54819;48.030;14.710;2023-02-28T08:00:24;-0.72;75.69
68026;SHT31;54819;48.030;14.710;2023-02-28T08:02:52;-0.66;75.46
68026;SHT31;54819;48.030;14.710;2023-02-28T08:05:19;-0.65;75.13
68026;SHT31;54819;48.030;14.710;2023-02-28T08:07:49;-0.61;75.27
68026;SHT31;54819;48.030;14.710;2023-02-28T08:10:16;-0.59;74.92
68026;SHT31;54819;48.030;14.710;2023-02-28T08:12:44;-0.57;74.79
68026;SHT31;54819;48.030;14.710;2023-02-28T08:15:11;-0.57;74.71
68026;SHT31;54819;48.030;14.710;2023-02-28T08:17:41;-0.51;74.89
68026;SHT31;54819;48.030;14.710;2023-02-28T08:20:09;-0.44;74.86
68026;SHT31;54819;48.030;14.710;2023-02-28T08:22:37;-0.40;74.29
68026;SHT31;54819;48.030;14.710;2023-02-28T08:25:04;-0.35;74.41
68026;SHT31;54819;48.030;14.710;2023-02-28T08:27:34;-0.29;74.22
68026;SHT31;54819;48.030;14.710;2023-02-28T08:30:02;-0.24;74.16
68026;SHT31;54819;48.030;14.710;2023-02-28T08:32:30;-0.21;74.17
68026;SHT31;54819;48.030;14.710;2023-02-28T08:34:59;-0.17;74.27
68026;SHT31;54819;48.030;14.710;2023-02-28T08:37:27;-0.12;74.27
68026;SHT31;54819;48.030;14.710;2023-02-28T08:39:54;-0.02;74.05
68026;SHT31;54819;48.030;14.710;2023-02-28T08:42:22;0.02;73.59
68026;SHT31;54819;48.030;14.710;2023-02-28T08:44:50;0.05;73.46
68026;SHT31;54819;48.030;14.710;2023-02-28T08:47:17;0.09;73.28
68026;SHT31;54819;48.030;14.710;2023-02-28T08:49:45;0.17;73.34
68026;SHT31;54819;48.030;14.710;2023-02-28T08:52:12;0.21;73.09
68026;SHT31;54819;48.030;14.710;2023-02-28T08:54:40;0.26;72.97
68026;SHT31;54819;48.030;14.710;2023-02-28T08:57:07;0.31;72.69
68026;SHT31;54819;48.030;14.710;2023-02-28T08:59:34;0.35;72.39
68026;SHT31;54819;48.030;14.710;2023-02-28T09:02:02;0.38;72.25
68026;SHT31;54819;48.030;14.710;2023-02-28T09:04:29;0.45;72.10
68026;SHT31;54819;48.030;14.710;2023-02-28T09:06:57;0.44;71.84
68026;SHT31;54819;48.030;14.710;2023-02-28T09:09:24;0.48;72.01
68026;SHT31;54819;48.030;14.710;2023-02-28T09:11:51;0.54;71.80
68026;SHT31;54819;48.030;14.710;2023-02-28T09:14:19;0.58;71.70
68026;SHT31;54819;48.030;14.710;2023-02-28T09:16:46;0.64;71.58
68026;SHT31;54819;48.030;14.710;2023-02-28T09:19:13;0.74;71.60
68026;SHT31;54819;48.030;14.710;2023-02-28T09:21:40;0.84;71.57
68026;SHT31;54819;48.030;14.710;2023-02-28T09:24:07;0.92;71.25
68026;SHT31;54819;48.030;14.710;2023-02-28T09:26:35;0.99;71.24
68026;SHT31;54819;48.030;14.710;2023-02-28T09:29:12;1.04;70.94
68026;SHT31;54819;48.030;14.710;2023-02-28T09:31:40;1.05;70.87
68026;SHT31;54819;48.030;14.710;2023-02-28T09:34:08;1.09;71.12
68026;SHT31;54819;48.030;14.710;2023-02-28T09:36:35;1.22;71.27
68026;SHT31;54819;48.030;14.710;2023-02-28T09:39:11;1.27;70.82
68026;SHT31;54819;48.030;14.710;2023-02-28T09:41:43;1.32;70.71
68026;SHT31;54819;48.030;14.710;2023-02-28T09:44:20;1.40;70.48
68026;SHT31;54819;48.030;14.710;2023-02-28T09:46:57;1.51;70.21
68026;SHT31;54819;48.030;14.710;2023-02-28T09:49:34;1.56;69.88
68026;SHT31;54819;48.030;14.710;2023-02-28T09:52:10;1.60;69.88
68026;SHT31;54819;48.030;14.710;2023-02-28T09:54:43;1.66;69.97
68026;SHT31;54819;48.030;14.710;2023-02-28T09:57:32;1.73;69.69
68026;SHT31;54819;48.030;14.710;2023-02-28T10:05:43;1.97;69.51
68026;SHT31;54819;48.030;14.710;2023-02-28T10:11:09;2.11;68.71
68026;SHT31;54819;48.030;14.710;2023-02-28T10:16:34;2.24;68.64
68026;SHT31;54819;48.030;14.710;2023-02-28T10:22:00;2.37;68.57
68026;SHT31;54819;48.030;14.710;2023-02-28T10:27:22;2.49;68.04
68026;SHT31;54819;48.030;14.710;2023-02-28T10:29:52;2.56;68.00
68026;SHT31;54819;48.030;14.710;2023-02-28T10:32:27;2.55;67.42
68026;SHT31;54819;48.030;14.710;2023-02-28T10:35:03;2.52;67.44
68026;SHT31;54819;48.030;14.710;2023-02-28T10:37:41;2.50;67.11
68026;SHT31;54819;48.030;14.710;2023-02-28T10:40:33;2.53;67.41
68026;SHT31;54819;48.030;14.710;2023-02-28T10:43:06;2.62;67.53
68026;SHT31;54819;48.030;14.710;2023-02-28T10:49:29;2.80;67.05
68026;SHT31;54819;48.030;14.710;2023-02-28T10:51:39;2.93;67.19
68026;SHT31;54819;48.030;14.710;2023-02-28T10:54:18;2.94;66.62
68026;SHT31;54819;48.030;14.710;2023-02-28T10:57:08;3.00;66.80
68026;SHT31;54819;48.030;14.710;2023-02-28T10:59:40;3.11;66.90
68026;SHT31;54819;48.030;14.710;2023-02-28T11:05:02;3.30;66.93
68026;SHT31;54819;48.030;14.710;2023-02-28T11:08:34;3.46;66.48
68026;SHT31;54819;48.030;14.710;2023-02-28T11:11:03;3.58;66.55
68026;SHT31;54819;48.030;14.710;2023-02-28T11:13:33;3.68;65.78
68026;SHT31;54819;48.030;14.710;2023-02-28T11:16:07;3.73;66.26
68026;SHT31;54819;48.030;14.710;2023-02-28T11:21:19;3.79;64.35
68026;SHT31;54819;48.030;14.710;2023-02-28T11:23:51;3.82;64.60
68026;SHT31;54819;48.030;14.710;2023-02-28T11:26:41;3.85;64.61
68026;SHT31;54819;48.030;14.710;2023-02-28T11:29:16;3.93;64.45
68026;SHT31;54819;48.030;14.710;2023-02-28T11:32:18;3.98;64.30
68026;SHT31;54819;48.030;14.710;2023-02-28T11:34:59;4.00;63.84
68026;SHT31;54819;48.030;14.710;2023-02-28T11:37:39;4.04;64.15
68026;SHT31;54819;48.030;14.710;2023-02-28T11:40:17;4.14;64.66
68026;SHT31;54819;48.030;14.710;2023-02-28T11:43:10;4.25;64.78
68026;SHT31;54819;48.030;14.710;2023-02-28T11:46:05;4.37;64.40
68026;SHT31;54819;48.030;14.710;2023-02-28T11:54:16;4.50;64.28
68026;SHT31;54819;48.030;14.710;2023-02-28T11:57:09;4.54;63.52
68026;SHT31;54819;48.030;14.710;2023-02-28T12:00:25;4.48;63.30
68026;SHT31;54819;48.030;14.710;2023-02-28T12:06:15;4.43;63.57
68026;SHT31;54819;48.030;14.710;2023-02-28T12:08:48;4.51;63.80
68026;SHT31;54819;48.030;14.710;2023-02-28T12:11:34;4.59;63.81
68026;SHT31;54819;48.030;14.710;2023-02-28T12:22:49;4.71;63.64
68026;SHT31;54819;48.030;14.710;2023-02-28T12:28:13;4.75;63.51
68026;SHT31;54819;48.030;14.710;2023-02-28T12:30:56;4.76;63.30
68026;SHT31;54819;48.030;14.710;2023-02-28T12:33:48;4.73;63.33
68026;SHT31;54819;48.030;14.710;2023-02-28T12:36:19;4.78;63.21
68026;SHT31;54819;48.030;14.710;2023-02-28T12:38:54;4.81;63.10
68026;SHT31;54819;48.030;14.710;2023-02-28T12:44:13;4.88;63.09
68026;SHT31;54819;48.030;14.710;2023-02-28T12:46:50;4.98;63.45
68026;SHT31;54819;48.030;14.710;2023-02-28T12:52:18;5.19;63.48
68026;SHT31;54819;48.030;14.710;2023-02-28T13:00:34;5.22;61.77
68026;SHT31;54819;48.030;14.710;2023-02-28T13:09:01;5.11;61.10
68026;SHT31;54819;48.030;14.710;2023-02-28T13:11:43;5.07;61.82
68026;SHT31;54819;48.030;14.710;2023-02-28T13:15:00;5.14;62.49
68026;SHT31;54819;48.030;14.710;2023-02-28T13:19:44;5.23;62.21
68026;SHT31;54819;48.030;14.710;2023-02-28T13:22:19;5.25;61.91
68026;SHT31;54819;48.030;14.710;2023-02-28T13:28:00;5.29;61.21
68026;SHT31;54819;48.030;14.710;2023-02-28T13:36:40;5.39;62.11
68026;SHT31;54819;48.030;14.710;2023-02-28T13:47:32;5.41;61.98
68026;SHT31;54819;48.030;14.710;2023-02-28T13:53:03;5.41;61.47
68026;SHT31;54819;48.030;14.710;2023-02-28T14:06:54;5.21;61.90
68026;SHT31;54819;48.030;14.710;2023-02-28T14:11:52;5.19;62.33
68026;SHT31;54819;48.030;14.710;2023-02-28T14:17:03;4.97;62.64
68026;SHT31;54819;48.030;14.710;2023-02-28T14:19:33;4.92;62.95
68026;SHT31;54819;48.030;14.710;2023-02-28T14:30:40;4.82;63.61
68026;SHT31;54819;48.030;14.710;2023-02-28T14:39:06;4.98;62.44
68026;SHT31;54819;48.030;14.710;2023-02-28T14:41:38;5.00;62.29
68026;SHT31;54819;48.030;14.710;2023-02-28T14:44:20;5.03;62.14
68026;SHT31;54819;48.030;14.710;2023-02-28T14:46:51;5.07;62.39
68026;SHT31;54819;48.030;14.710;2023-02-28T14:52:42;5.14;62.31
68026;SHT31;54819;48.030;14.710;2023-02-28T14:54:54;5.14;62.31
68026;SHT31;54819;48.030;14.710;2023-02-28T14:57:26;5.15;62.64
68026;SHT31;54819;48.030;14.710;2023-02-28T15:02:26;5.11;61.71
68026;SHT31;54819;48.030;14.710;2023-02-28T15:04:58;5.07;61.62
68026;SHT31;54819;48.030;14.710;2023-02-28T15:07:28;5.02;61.92
68026;SHT31;54819;48.030;14.710;2023-02-28T15:10:16;4.99;61.93
68026;SHT31;54819;48.030;14.710;2023-02-28T15:12:51;5.03;62.72
68026;SHT31;54819;48.030;14.710;2023-02-28T15:15:21;5.04;62.64
68026;SHT31;54819;48.030;14.710;2023-02-28T15:18:38;5.00;62.22
68026;SHT31;54819;48.030;14.710;2023-02-28T15:21:11;4.96;62.46
68026;SHT31;54819;48.030;14.710;2023-02-28T15:23:45;4.93;62.37
68026;SHT31;54819;48.030;14.710;2023-02-28T15:26:17;4.89;62.17
68026;SHT31;54819;48.030;14.710;2023-02-28T15:28:51;4.86;62.25
68026;SHT31;54819;48.030;14.710;2023-02-28T15:31:29;4.79;62.72
68026;SHT31;54819;48.030;14.710;2023-02-28T15:34:27;4.75;62.82
68026;SHT31;54819;48.030;14.710;2023-02-28T15:39:54;4.70;63.32
68026;SHT31;54819;48.030;14.710;2023-02-28T15:42:27;4.68;63.47
68026;SHT31;54819;48.030;14.710;2023-02-28T15:44:55;4.64;63.57
68026;SHT31;54819;48.030;14.710;2023-02-28T15:47:25;4.61;63.44
68026;SHT31;54819;48.030;14.710;2023-02-28T15:52:57;4.51;63.33
68026;SHT31;54819;48.030;14.710;2023-02-28T15:55:21;4.45;63.89
68026;SHT31;54819;48.030;14.710;2023-02-28T15:57:51;4.45;63.98
68026;SHT31;54819;48.030;14.710;2023-02-28T16:00:24;4.41;63.97
68026;SHT31;54819;48.030;14.710;2023-02-28T16:02:59;4.39;64.28
68026;SHT31;54819;48.030;14.710;2023-02-28T16:05:27;4.35;64.32
68026;SHT31;54819;48.030;14.710;2023-02-28T16:08:11;4.31;64.01
68026;SHT31;54819;48.030;14.710;2023-02-28T16:10:44;4.24;63.93
68026;SHT31;54819;48.030;14.710;2023-02-28T16:13:19;4.19;64.26
68026;SHT31;54819;48.030;14.710;2023-02-28T16:15:51;4.15;64.36
68026;SHT31;54819;48.030;14.710;2023-02-28T16:18:25;4.11;64.45
68026;SHT31;54819;48.030;14.710;2023-02-28T16:20:56;4.07;64.81
68026;SHT31;54819;48.030;14.710;2023-02-28T16:23:28;4.01;65.13
68026;SHT31;54819;48.030;14.710;2023-02-28T16:25:58;3.99;65.24
68026;SHT31;54819;48.030;14.710;2023-02-28T16:28:32;3.93;65.32
68026;SHT31;54819;48.030;14.710;2023-02-28T16:31:02;3.91;65.32
68026;SHT31;54819;48.030;14.710;2023-02-28T16:33:36;3.86;65.41
68026;SHT31;54819;48.030;14.710;2023-02-28T16:36:20;3.82;65.54
68026;SHT31;54819;48.030;14.710;2023-02-28T16:38:56;3.76;65.67
68026;SHT31;54819;48.030;14.710;2023-02-28T16:41:24;3.73;65.87
68026;SHT31;54819;48.030;14.710;2023-02-28T16:43:56;3.68;65.94
68026;SHT31;54819;48.030;14.710;2023-02-28T16:46:38;3.64;66.03
68026;SHT31;54819;48.030;14.710;2023-02-28T16:49:07;3.61;66.06
68026;SHT31;54819;48.030;14.710;2023-02-28T16:51:39;3.56;66.09
68026;SHT31;54819;48.030;14.710;2023-02-28T16:54:06;3.51;66.11
68026;SHT31;54819;48.030;14.710;2023-02-28T16:56:33;3.48;66.16
68026;SHT31;54819;48.030;14.710;2023-02-28T16:59:02;3.42;66.44
68026;SHT31;54819;48.030;14.710;2023-02-28T17:01:29;3.37;66.58
68026;SHT31;54819;48.030;14.710;2023-02-28T17:03:58;3.29;66.71
68026;SHT31;54819;48.030;14.710;2023-02-28T17:06:26;3.21;66.74
68026;SHT31;54819;48.030;14.710;2023-02-28T17:08:57;3.13;66.97
68026;SHT31;54819;48.030;14.710;2023-02-28T17:11:26;3.05;67.22
68026;SHT31;54819;48.030;14.710;2023-02-28T17:14:06;2.99;67.42
68026;SHT31;54819;48.030;14.710;2023-02-28T17:16:36;2.93;67.76
68026;SHT31;54819;48.030;14.710;2023-02-28T17:19:12;2.90;67.89
68026;SHT31;54819;48.030;14.710;2023-02-28T17:21:41;2.89;67.90
68026;SHT31;54819;48.030;14.710;2023-02-28T17:24:15;2.90;67.84
68026;SHT31;54819;48.030;14.710;2023-02-28T17:26:58;2.86;67.98
68026;SHT31;54819;48.030;14.710;2023-02-28T17:29:27;2.85;67.93
68026;SHT31;54819;48.030;14.710;2023-02-28T17:31:59;2.77;68.14
68026;SHT31;54819;48.030;14.710;2023-02-28T17:34:43;2.71;68.29
68026;SHT31;54819;48.030;14.710;2023-02-28T17:37:17;2.66;68.32
68026;SHT31;54819;48.030;14.710;2023-02-28T17:39:45;2.61;68.28
68026;SHT31;54819;48.030;14.710;2023-02-28T17:42:12;2.57;68.34
68026;SHT31;54819;48.030;14.710;2023-02-28T17:44:40;2.54;68.28
68026;SHT31;54819;48.030;14.710;2023-02-28T17:47:08;2.50;68.41
68026;SHT31;54819;48.030;14.710;2023-02-28T17:49:39;2.46;68.35
68026;SHT31;54819;48.030;14.710;2023-02-28T17:52:08;2.41;68.46
68026;SHT31;54819;48.030;14.710;2023-02-28T17:54:39;2.36;68.65
68026;SHT31;54819;48.030;14.710;2023-02-28T17:57:08;2.32;68.79
68026;SHT31;54819;48.030;14.710;2023-02-28T17:59:41;2.25;68.86
68026;SHT31;54819;48.030;14.710;2023-02-28T18:02:11;2.21;68.98
68026;SHT31;54819;48.030;14.710;2023-02-28T18:04:43;2.13;68.96
68026;SHT31;54819;48.030;14.710;2023-02-28T18:07:10;2.07;69.05
68026;SHT31;54819;48.030;14.710;2023-02-28T18:09:41;2.03;69.16
68026;SHT31;54819;48.030;14.710;2023-02-28T18:12:08;1.97;69.28
68026;SHT31;54819;48.030;14.710;2023-02-28T18:14:36;1.94;69.36
68026;SHT31;54819;48.030;14.710;2023-02-28T18:17:06;1.91;69.49
68026;SHT31;54819;48.030;14.710;2023-02-28T18:19:36;1.90;69.58
68026;SHT31;54819;48.030;14.710;2023-02-28T18:22:09;1.89;69.71
68026;SHT31;54819;48.030;14.710;2023-02-28T18:24:37;1.85;69.76
68026;SHT31;54819;48.030;14.710;2023-02-28T18:27:08;1.81;69.80
68026;SHT31;54819;48.030;14.710;2023-02-28T18:29:39;1.80;69.87
68026;SHT31;54819;48.030;14.710;2023-02-28T18:32:07;1.77;70.00
68026;SHT31;54819;48.030;14.710;2023-02-28T18:34:35;1.75;69.93
68026;SHT31;54819;48.030;14.710;2023-02-28T18:37:03;1.69;69.86